createdAt,value
2022-11-17T00:00:37.292Z,94745.00
2022-11-17T00:03:04.064Z,94722.66
2022-11-17T00:05:30.710Z,94722.88
2022-11-17T00:07:57.499Z,94745.56
2022-11-17T00:10:24.158Z,94742.84
2022-11-17T00:13:09.590Z,94739.25
2022-11-17T00:15:36.405Z,94768.16
2022-11-17T00:18:21.835Z,94729.41
2022-11-17T00:21:07.061Z,94762.06
2022-11-17T00:23:49.786Z,94756.69
2022-11-17T00:26:19.297Z,94775.88
2022-11-17T00:28:46.032Z,94741.66
2022-11-17T00:31:32.650Z,94763.34
2022-11-17T00:34:05.800Z,94739.03
2022-11-17T00:36:43.380Z,94752.97
2022-11-17T00:39:10.818Z,94750.69
2022-11-17T00:41:37.757Z,94752.00
2022-11-17T00:44:05.093Z,94752.00
2022-11-17T00:46:31.928Z,94734.78
2022-11-17T00:48:58.738Z,94735.97
2022-11-17T00:51:25.608Z,94729.13
2022-11-17T00:53:52.768Z,94727.69
2022-11-17T00:56:19.405Z,94721.13
2022-11-17T00:58:46.122Z,94723.53
2022-11-17T01:01:13.368Z,94759.53
2022-11-17T01:03:40.108Z,94710.13
2022-11-17T01:06:11.639Z,94746.88
2022-11-17T01:08:38.901Z,94731.50
2022-11-17T01:11:31.939Z,94738.78
2022-11-17T01:14:00.510Z,94713.84
2022-11-17T01:16:29.912Z,94717.06
2022-11-17T01:18:59.615Z,94710.97
2022-11-17T01:21:28.225Z,94712.19
2022-11-17T01:23:57.185Z,94667.63
2022-11-17T01:26:26.518Z,94700.84
2022-11-17T01:28:53.528Z,94698.66
2022-11-17T01:31:26.011Z,94714.03
2022-11-17T01:33:53.016Z,94710.66
2022-11-17T01:36:27.076Z,94707.84
2022-11-17T01:38:54.051Z,94687.78
2022-11-17T01:41:23.519Z,94701.84
2022-11-17T01:43:55.836Z,94686.16
2022-11-17T01:46:34.285Z,94701.63
2022-11-17T01:49:21.815Z,94708.03
2022-11-17T01:51:56.740Z,94711.66
2022-11-17T01:54:26.670Z,94703.47
2022-11-17T01:56:58.315Z,94680.16
2022-11-17T01:59:40.140Z,94685.41
2022-11-17T02:02:07.373Z,94694.34
2022-11-17T02:04:42.955Z,94668.38
2022-11-17T02:07:24.729Z,94675.13
2022-11-17T02:09:52.880Z,94673.94
2022-11-17T02:12:21.348Z,94667.84
2022-11-17T02:14:49.792Z,94668.72
2022-11-17T02:17:18.068Z,94672.75
2022-11-17T02:19:48.863Z,94657.47
2022-11-17T02:22:49.549Z,94662.28
2022-11-17T02:26:00.803Z,94664.66
2022-11-17T02:28:32.789Z,94657.38
2022-11-17T02:31:23.469Z,94640.50
2022-11-17T02:34:05.217Z,94646.47
2022-11-17T02:36:43.996Z,94652.91
2022-11-17T02:39:22.661Z,94668.81
2022-11-17T02:42:04.948Z,94636.00
2022-11-17T02:44:36.650Z,94659.97
2022-11-17T02:47:09.745Z,94654.94
2022-11-17T02:49:41.215Z,94644.28
2022-11-17T02:52:09.274Z,94667.84
2022-11-17T02:54:35.869Z,94662.59
2022-11-17T02:57:02.473Z,94660.09
2022-11-17T02:59:48.785Z,94650.69
2022-11-17T03:02:20.268Z,94627.59
2022-11-17T03:05:17.080Z,94616.38
2022-11-17T03:08:13.462Z,94611.47
2022-11-17T03:11:02.625Z,94630.44
2022-11-17T03:13:32.446Z,94626.41
2022-11-17T03:16:24.876Z,94625.75
2022-11-17T03:18:59.647Z,94626.41
2022-11-17T03:21:31.533Z,94600.81
2022-11-17T03:24:01.257Z,94624.03
2022-11-17T03:26:33.694Z,94622.59
2022-11-17T03:29:03.724Z,94605.38
2022-11-17T03:31:32.735Z,94582.19
2022-11-17T03:34:02.663Z,94597.88
2022-11-17T03:36:34.640Z,94604.28
2022-11-17T03:39:30.647Z,94601.91
2022-11-17T03:42:02.796Z,94603.94
2022-11-17T03:44:32.229Z,94591.44
2022-11-17T03:47:02.363Z,94601.13
2022-11-17T03:49:51.177Z,94566.06
2022-11-17T03:52:18.828Z,94585.75
2022-11-17T03:54:45.613Z,94573.56
2022-11-17T03:57:40.026Z,94569.31
2022-11-17T04:00:12.612Z,94566.06
2022-11-17T04:02:48.281Z,94550.06
2022-11-17T04:05:17.917Z,94525.97
2022-11-17T04:07:46.690Z,94548.72
2022-11-17T04:10:19.305Z,94543.28
2022-11-17T04:13:05.325Z,94542.94
2022-11-17T04:15:50.790Z,94510.19
2022-11-17T04:18:17.722Z,94529.13
2022-11-17T04:20:44.421Z,94500.38
2022-11-17T04:23:15.381Z,94524.09
2022-11-17T04:26:08.643Z,94521.38
2022-11-17T04:28:38.781Z,94520.19
2022-11-17T04:31:18.701Z,94504.50
2022-11-17T04:33:49.665Z,94503.66
2022-11-17T04:36:19.187Z,94515.28
2022-11-17T04:38:51.808Z,94503.41
2022-11-17T04:41:38.613Z,94503.84
2022-11-17T04:44:06.983Z,94486.31
2022-11-17T04:46:35.418Z,94486.63
2022-11-17T04:49:02.931Z,94489.56
2022-11-17T04:51:30.487Z,94417.53
2022-11-17T04:53:57.785Z,94475.44
2022-11-17T04:56:25.973Z,94482.50
2022-11-17T04:58:52.955Z,94468.97
2022-11-17T05:01:20.977Z,94474.22
2022-11-17T05:04:11.649Z,94463.00
2022-11-17T05:06:38.175Z,94460.81
2022-11-17T05:09:08.251Z,94464.09
2022-11-17T05:11:53.431Z,94444.69
2022-11-17T05:14:22.990Z,94474.38
2022-11-17T05:17:09.600Z,94477.41
2022-11-17T05:19:45.685Z,94489.41
2022-11-17T05:22:34.081Z,94488.97
2022-11-17T05:25:00.784Z,94450.13
2022-11-17T05:27:28.048Z,94477.47
2022-11-17T05:29:54.595Z,94448.81
2022-11-17T05:32:21.793Z,94469.84
2022-11-17T05:34:48.417Z,94486.50
2022-11-17T05:37:15.141Z,94506.63
2022-11-17T05:39:41.741Z,94496.00
2022-11-17T05:42:08.350Z,94476.06
2022-11-17T05:44:35.013Z,94481.06
2022-11-17T05:47:01.969Z,94473.03
2022-11-17T05:49:28.704Z,94470.16
2022-11-17T05:51:55.537Z,94453.84
2022-11-17T05:54:22.364Z,94462.91
2022-11-17T05:57:04.404Z,94460.59
2022-11-17T05:59:40.901Z,94493.78
2022-11-17T06:02:16.677Z,94489.63
2022-11-17T06:04:43.984Z,94502.50
2022-11-17T06:07:11.160Z,94509.44
2022-11-17T06:09:41.453Z,94509.97
2022-11-17T06:12:08.993Z,94508.69
2022-11-17T06:14:37.616Z,94496.72
2022-11-17T06:17:09.582Z,94505.22
2022-11-17T06:19:43.981Z,94504.75
2022-11-17T06:22:12.761Z,94472.53
2022-11-17T06:24:42.050Z,94441.53
2022-11-17T06:27:10.747Z,94462.41
2022-11-17T06:29:42.636Z,94477.41
2022-11-17T06:32:11.317Z,94465.16
2022-11-17T06:34:38.135Z,94472.75
2022-11-17T06:37:04.708Z,94469.38
2022-11-17T06:39:31.366Z,94415.72
2022-11-17T06:41:57.921Z,94477.94
2022-11-17T06:44:24.469Z,94452.94
2022-11-17T06:46:51.085Z,94479.47
2022-11-17T06:49:17.766Z,94500.38
2022-11-17T06:51:45.606Z,94479.13
2022-11-17T06:54:14.707Z,94496.22
2022-11-17T06:56:42.363Z,94499.34
2022-11-17T06:59:09.180Z,94471.16
2022-11-17T07:01:37.147Z,94509.81
2022-11-17T07:04:03.964Z,94484.41
2022-11-17T07:06:30.809Z,94497.47
2022-11-17T07:08:57.524Z,94522.47
2022-11-17T07:11:24.373Z,94500.09
2022-11-17T07:13:51.145Z,94528.84
2022-11-17T07:16:23.492Z,94518.63
2022-11-17T07:18:52.401Z,94535.56
2022-11-17T07:21:19.285Z,94501.44
2022-11-17T07:23:47.432Z,94532.56
2022-11-17T07:26:14.464Z,94518.81
2022-11-17T07:28:41.399Z,94530.47
2022-11-17T07:31:09.418Z,94511.31
2022-11-17T07:33:36.840Z,94564.88
2022-11-17T07:36:09.799Z,94549.50
2022-11-17T07:38:38.269Z,94566.31
2022-11-17T07:41:06.049Z,94536.25
2022-11-17T07:43:34.009Z,94536.66
2022-11-17T07:46:08.462Z,94547.03
2022-11-17T07:48:36.716Z,94563.31
2022-11-17T07:51:04.772Z,94541.06
2022-11-17T07:53:33.256Z,94552.38
2022-11-17T07:56:08.803Z,94546.88
2022-11-17T07:58:36.433Z,94539.19
2022-11-17T08:01:08.065Z,94500.75
2022-11-17T08:03:34.876Z,94463.19
2022-11-17T08:06:06.452Z,94462.16
2022-11-17T08:08:34.249Z,94491.56
2022-11-17T08:11:06.115Z,94503.06
2022-11-17T08:13:33.258Z,94490.78
2022-11-17T08:15:59.900Z,94476.66
2022-11-17T08:18:27.078Z,94504.75
2022-11-17T08:21:03.876Z,94501.72
2022-11-17T08:23:30.565Z,94494.41
2022-11-17T08:25:57.482Z,94499.22
2022-11-17T08:28:24.075Z,94502.59
2022-11-17T08:30:50.719Z,94492.06
2022-11-17T08:33:17.564Z,94493.75
2022-11-17T08:35:44.288Z,94513.31
2022-11-17T08:38:15.410Z,94512.25
2022-11-17T08:40:42.624Z,94529.03
2022-11-17T08:43:09.351Z,94523.66
2022-11-17T08:45:35.967Z,94522.16
2022-11-17T08:48:04.057Z,94526.41
2022-11-17T08:50:30.653Z,94488.50
2022-11-17T08:52:57.282Z,94459.25
2022-11-17T08:55:26.493Z,94462.03
2022-11-17T08:57:53.365Z,94490.66
2022-11-17T09:00:21.992Z,94461.72
2022-11-17T09:02:48.901Z,94497.50
2022-11-17T09:05:15.639Z,94458.06
2022-11-17T09:07:42.851Z,94484.88
2022-11-17T09:10:11.116Z,94494.00
2022-11-17T09:12:38.054Z,94458.47
2022-11-17T09:15:05.704Z,94483.09
2022-11-17T09:17:32.597Z,94509.38
2022-11-17T09:19:59.727Z,94491.94
2022-11-17T09:22:26.580Z,94480.47
2022-11-17T09:24:53.207Z,94503.75
2022-11-17T09:27:19.904Z,94505.25
2022-11-17T09:29:46.503Z,94476.81
2022-11-17T09:32:13.471Z,94503.38
2022-11-17T09:34:40.102Z,94471.72
2022-11-17T09:37:06.725Z,94478.47
2022-11-17T09:39:33.294Z,94488.38
2022-11-17T09:41:59.961Z,94507.31
2022-11-17T09:44:40.708Z,94489.13
2022-11-17T09:47:20.796Z,94497.72
2022-11-17T09:50:13.090Z,94504.47
2022-11-17T09:52:58.108Z,94505.25
2022-11-17T09:55:37.221Z,94509.69
2022-11-17T09:58:49.831Z,94508.44
2022-11-17T10:01:19.748Z,94518.16
2022-11-17T10:03:48.671Z,94518.31
2022-11-17T10:06:26.811Z,94522.28
2022-11-17T10:09:00.330Z,94533.13
2022-11-17T10:11:32.734Z,94519.69
2022-11-17T10:14:08.424Z,94533.56
2022-11-17T10:16:37.041Z,94525.50
2022-11-17T10:19:28.291Z,94531.66
2022-11-17T10:22:16.791Z,94491.50
2022-11-17T10:24:46.859Z,94498.09
2022-11-17T10:27:25.115Z,94482.00
2022-11-17T10:30:07.190Z,94492.53
2022-11-17T10:32:48.452Z,94483.50
2022-11-17T10:35:21.004Z,94460.34
2022-11-17T10:38:02.042Z,94474.81
2022-11-17T10:40:45.656Z,94467.94
2022-11-17T10:43:12.204Z,94476.34
2022-11-17T10:45:45.791Z,94477.94
2022-11-17T10:48:35.607Z,94470.69
2022-11-17T10:51:21.101Z,94464.28
2022-11-17T10:54:16.614Z,94481.44
2022-11-17T10:56:55.944Z,94484.97
2022-11-17T10:59:30.334Z,94478.19
2022-11-17T11:01:57.898Z,94479.72
2022-11-17T11:04:36.651Z,94474.47
2022-11-17T11:07:13.477Z,94444.75
2022-11-17T11:09:53.419Z,94473.06
2022-11-17T11:12:34.386Z,94464.16
2022-11-17T11:15:03.251Z,94453.84
2022-11-17T11:17:30.051Z,94461.03
2022-11-17T11:19:59.149Z,94456.03
2022-11-17T11:22:29.094Z,94446.28
2022-11-17T11:25:17.531Z,94447.50
2022-11-17T11:27:50.059Z,94454.75
2022-11-17T11:30:18.742Z,94461.78
2022-11-17T11:33:04.187Z,94461.84
2022-11-17T11:35:36.855Z,94452.53
2022-11-17T11:38:27.746Z,94457.78
2022-11-17T11:41:09.787Z,94440.28
2022-11-17T11:43:53.102Z,94472.28
2022-11-17T11:46:41.555Z,94479.34
2022-11-17T11:49:21.494Z,94441.91
2022-11-17T11:51:50.382Z,94449.75
2022-11-17T11:54:24.534Z,94448.66
2022-11-17T11:56:51.696Z,94463.97
2022-11-17T11:59:31.078Z,94482.38
2022-11-17T12:02:00.840Z,94471.63
2022-11-17T12:04:43.820Z,94457.75
2022-11-17T12:07:35.320Z,94450.06
2022-11-17T12:10:15.790Z,94436.94
2022-11-17T12:12:45.411Z,94450.16
2022-11-17T12:15:12.414Z,94458.03
2022-11-17T12:17:54.680Z,94466.16
2022-11-17T12:20:33.495Z,94452.38
2022-11-17T12:23:21.864Z,94447.88
2022-11-17T12:25:54.581Z,94441.53
2022-11-17T12:28:41.252Z,94434.31
2022-11-17T12:31:12.415Z,94448.47
2022-11-17T12:33:54.281Z,94444.66
2022-11-17T12:36:29.699Z,94447.44
2022-11-17T12:38:59.647Z,94407.75
2022-11-17T12:41:48.195Z,94439.16
2022-11-17T12:44:33.277Z,94453.38
2022-11-17T12:47:19.887Z,94452.28
2022-11-17T12:50:05.325Z,94455.53
2022-11-17T12:52:37.055Z,94456.59
2022-11-17T12:55:17.477Z,94435.78
2022-11-17T12:57:47.179Z,94438.69
2022-11-17T13:00:19.810Z,94413.16
2022-11-17T13:02:59.296Z,94433.56
2022-11-17T13:05:28.623Z,94409.72
2022-11-17T13:08:30.810Z,94429.06
2022-11-17T13:11:05.461Z,94408.56
2022-11-17T13:13:34.008Z,94414.13
2022-11-17T13:16:03.878Z,94420.50
2022-11-17T13:18:40.353Z,94456.63
2022-11-17T13:21:29.678Z,94465.75
2022-11-17T13:23:57.761Z,94473.44
2022-11-17T13:26:26.867Z,94466.44
2022-11-17T13:29:19.152Z,94453.47
2022-11-17T13:31:46.271Z,94460.22
2022-11-17T13:34:13.486Z,94464.38
2022-11-17T13:37:18.982Z,94463.91
2022-11-17T13:40:03.532Z,94461.78
2022-11-17T13:42:33.334Z,94439.91
2022-11-17T13:45:02.984Z,94473.03
2022-11-17T13:47:39.452Z,94470.66
2022-11-17T13:50:27.231Z,94475.56
2022-11-17T13:52:58.283Z,94475.09
2022-11-17T13:55:26.317Z,94474.69
2022-11-17T13:58:26.244Z,94478.97
2022-11-17T14:00:56.519Z,94454.28
2022-11-17T14:03:41.443Z,94470.09
2022-11-17T14:06:13.591Z,94507.75
2022-11-17T14:08:42.192Z,94518.13
2022-11-17T14:11:21.165Z,94530.72
2022-11-17T14:13:58.999Z,94518.81
2022-11-17T14:16:39.832Z,94520.50
2022-11-17T14:19:15.991Z,94519.38
2022-11-17T14:22:29.507Z,94519.06
2022-11-17T14:24:58.398Z,94514.41
2022-11-17T14:27:31.862Z,94518.34
2022-11-17T14:29:58.527Z,94517.53
2022-11-17T14:32:25.286Z,94513.44
2022-11-17T14:34:52.043Z,94465.97
2022-11-17T14:37:18.932Z,94479.44
2022-11-17T14:39:45.507Z,94489.34
2022-11-17T14:42:12.211Z,94472.25
2022-11-17T14:44:38.858Z,94487.94
2022-11-17T14:47:05.501Z,94484.97
2022-11-17T14:49:32.168Z,94474.34
2022-11-17T14:51:59.309Z,94450.16
2022-11-17T14:54:26.290Z,94477.44
2022-11-17T14:56:52.910Z,94480.00
2022-11-17T14:59:19.571Z,94472.25
2022-11-17T15:01:46.242Z,94484.94
2022-11-17T15:04:48.174Z,94471.41
2022-11-17T15:07:02.643Z,94434.88
2022-11-17T15:09:29.399Z,94442.25
2022-11-17T15:11:56.170Z,94469.38
2022-11-17T15:14:22.875Z,94462.53
2022-11-17T15:16:49.715Z,94451.09
2022-11-17T15:19:16.557Z,94437.75
2022-11-17T15:21:43.299Z,94458.50
2022-11-17T15:24:10.002Z,94482.63
2022-11-17T15:26:36.748Z,94465.41
2022-11-17T15:29:03.480Z,94442.66
2022-11-17T15:31:30.614Z,94453.75
2022-11-17T15:33:57.536Z,94475.66
2022-11-17T15:36:24.640Z,94456.41
2022-11-17T15:38:53.353Z,94462.75
2022-11-17T15:41:20.388Z,94486.94
2022-11-17T15:43:47.141Z,94312.81
2022-11-17T15:46:18.579Z,94476.00
2022-11-17T15:48:47.354Z,94481.41
2022-11-17T15:51:16.495Z,94474.56
2022-11-17T15:53:44.755Z,94445.84
2022-11-17T15:56:17.078Z,94469.22
2022-11-17T15:58:44.599Z,94455.69
2022-11-17T16:01:11.342Z,94468.56
2022-11-17T16:03:39.344Z,94467.72
2022-11-17T16:06:06.640Z,94464.66
2022-11-17T16:08:33.762Z,94430.19
2022-11-17T16:11:01.015Z,94470.47
2022-11-17T16:13:27.824Z,94455.44
2022-11-17T16:15:54.773Z,94467.09
2022-11-17T16:18:22.050Z,94471.75
2022-11-17T16:20:48.887Z,94456.88
2022-11-17T16:23:15.885Z,94455.38
2022-11-17T16:25:44.387Z,94499.81
2022-11-17T16:28:13.173Z,94474.91
2022-11-17T16:30:43.396Z,94495.69
2022-11-17T16:33:12.217Z,94472.81
2022-11-17T16:35:40.523Z,94477.75
2022-11-17T16:38:12.774Z,94487.38
2022-11-17T16:40:39.977Z,94473.28
2022-11-17T16:43:06.755Z,94503.28
2022-11-17T16:45:44.862Z,94518.16
2022-11-17T16:48:12.546Z,94436.59
2022-11-17T16:50:41.125Z,94513.78
2022-11-17T16:53:07.836Z,94496.69
2022-11-17T16:55:37.750Z,94460.44
2022-11-17T16:58:05.916Z,94446.19
2022-11-17T17:00:33.211Z,94504.06
2022-11-17T17:03:02.900Z,94482.34
2022-11-17T17:05:29.748Z,94492.50
2022-11-17T17:07:57.146Z,94502.22
2022-11-17T17:10:24.759Z,94518.03
2022-11-17T17:12:51.450Z,94529.25
2022-11-17T17:15:18.270Z,94509.34
2022-11-17T17:17:44.855Z,94520.03
2022-11-17T17:20:11.855Z,94526.72
2022-11-17T17:22:38.456Z,94563.69
2022-11-17T17:25:05.647Z,94532.50
2022-11-17T17:27:32.414Z,94539.00
2022-11-17T17:29:59.112Z,94546.38
2022-11-17T17:32:25.740Z,94526.72
2022-11-17T17:34:52.366Z,94524.78
2022-11-17T17:37:19.022Z,94551.19
2022-11-17T17:39:45.642Z,94517.75
2022-11-17T17:42:13.633Z,94505.69
2022-11-17T17:44:40.276Z,94548.44
2022-11-17T17:47:06.979Z,94506.72
2022-11-17T17:49:33.600Z,94522.25
2022-11-17T17:52:00.278Z,94540.16
2022-11-17T17:54:26.950Z,94532.06
2022-11-17T17:56:53.713Z,94513.38
2022-11-17T17:59:20.448Z,94510.25
2022-11-17T18:01:48.132Z,94492.56
2022-11-17T18:04:16.464Z,94494.84
2022-11-17T18:06:47.084Z,94496.03
2022-11-17T18:09:15.570Z,94501.63
2022-11-17T18:11:46.088Z,94476.91
2022-11-17T18:14:13.339Z,94502.81
2022-11-17T18:16:40.307Z,94484.75
2022-11-17T18:19:08.792Z,94477.22
2022-11-17T18:21:35.970Z,94499.47
2022-11-17T18:24:03.418Z,94486.06
2022-11-17T18:26:32.921Z,94510.91
2022-11-17T18:29:27.040Z,94508.72
2022-11-17T18:31:53.750Z,94471.09
2022-11-17T18:34:22.897Z,94519.72
2022-11-17T18:36:51.137Z,94490.88
2022-11-17T18:39:18.503Z,94508.72
2022-11-17T18:41:45.536Z,94497.22
2022-11-17T18:44:13.804Z,94470.25
2022-11-17T18:46:40.799Z,94496.81
2022-11-17T18:49:07.494Z,94452.81
2022-11-17T18:51:36.972Z,94449.44
2022-11-17T18:54:04.182Z,94443.50
2022-11-17T18:56:35.948Z,94463.84
2022-11-17T18:59:04.024Z,94486.13
2022-11-17T19:01:30.820Z,94468.94
2022-11-17T19:04:02.427Z,94489.16
2022-11-17T19:06:29.554Z,94462.63
2022-11-17T19:08:58.920Z,94463.81
2022-11-17T19:11:26.769Z,94413.69
2022-11-17T19:13:53.494Z,94448.28
2022-11-17T19:16:22.520Z,94482.41
2022-11-17T19:18:53.032Z,94479.72
2022-11-17T19:21:21.330Z,94372.78
2022-11-17T19:23:51.880Z,94424.50
2022-11-17T19:26:27.360Z,94463.72
2022-11-17T19:28:58.967Z,94461.03
2022-11-17T19:31:26.656Z,94447.75
2022-11-17T19:33:54.314Z,94464.16
2022-11-17T19:36:29.860Z,94438.47
2022-11-17T19:38:58.379Z,94396.31
2022-11-17T19:41:30.350Z,94444.56
2022-11-17T19:43:59.597Z,94436.78
2022-11-17T19:46:28.403Z,94431.03
2022-11-17T19:48:56.471Z,94418.19
2022-11-17T19:51:24.591Z,94458.09
2022-11-17T19:53:54.068Z,94446.78
2022-11-17T19:57:02.585Z,94436.88
2022-11-17T19:59:36.937Z,94435.75
2022-11-17T20:02:03.655Z,94409.84
2022-11-17T20:04:30.376Z,94439.81
2022-11-17T20:06:57.206Z,94433.06
2022-11-17T20:09:23.905Z,94462.97
2022-11-17T20:11:50.602Z,94458.06
2022-11-17T20:14:17.217Z,94493.75
2022-11-17T20:16:44.068Z,94497.28
2022-11-17T20:19:11.562Z,94513.50
2022-11-17T20:21:38.284Z,94485.97
2022-11-17T20:24:04.998Z,94485.03
2022-11-17T20:26:35.228Z,94479.44
2022-11-17T20:29:01.988Z,94473.69
2022-11-17T20:31:32.316Z,94477.34
2022-11-17T20:34:00.681Z,94491.97
2022-11-17T20:36:30.010Z,94485.22
2022-11-17T20:38:59.180Z,94457.41
2022-11-17T20:41:29.329Z,94473.63
2022-11-17T20:43:57.667Z,94492.75
2022-11-17T20:46:25.076Z,94493.78
2022-11-17T20:48:52.117Z,94459.50
2022-11-17T20:51:21.280Z,94490.63
2022-11-17T20:53:47.944Z,94466.50
2022-11-17T20:56:18.587Z,94490.25
2022-11-17T20:58:45.773Z,94494.81
2022-11-17T21:01:17.956Z,94500.25
2022-11-17T21:03:48.111Z,94494.41
2022-11-17T21:06:15.530Z,94471.56
2022-11-17T21:08:43.671Z,94480.19
2022-11-17T21:11:33.621Z,94452.75
2022-11-17T21:14:00.771Z,94445.13
2022-11-17T21:16:30.326Z,94468.06
2022-11-17T21:18:57.217Z,94497.91
2022-11-17T21:21:24.027Z,94464.84
2022-11-17T21:23:54.662Z,94502.81
2022-11-17T21:26:22.892Z,94489.09
2022-11-17T21:28:50.328Z,94472.81
2022-11-17T21:31:23.539Z,94498.66
2022-11-17T21:33:55.071Z,94497.31
2022-11-17T21:36:23.124Z,94500.00
2022-11-17T21:38:50.197Z,94502.63
2022-11-17T21:41:19.849Z,94506.19
2022-11-17T21:43:48.563Z,94504.59
2022-11-17T21:46:17.909Z,94509.84
2022-11-17T21:48:45.356Z,94517.00
2022-11-17T21:51:20.779Z,94517.94
2022-11-17T21:53:51.579Z,94517.09
2022-11-17T21:56:18.205Z,94491.56
2022-11-17T21:58:44.854Z,94492.31
2022-11-17T22:01:13.725Z,94478.38
2022-11-17T22:03:41.629Z,94460.97
2022-11-17T22:06:18.074Z,94416.59
2022-11-17T22:08:50.250Z,94471.72
2022-11-17T22:11:35.373Z,94448.78
2022-11-17T22:14:14.291Z,94479.91
2022-11-17T22:16:43.735Z,94482.25
2022-11-17T22:19:12.045Z,94474.41
2022-11-17T22:21:39.189Z,94452.00
2022-11-17T22:24:07.869Z,94476.25
2022-11-17T22:26:38.084Z,94455.13
2022-11-17T22:29:06.652Z,94424.53
2022-11-17T22:31:33.458Z,94468.56
2022-11-17T22:34:00.144Z,94472.63
2022-11-17T22:36:26.757Z,94480.13
2022-11-17T22:38:53.497Z,94479.47
2022-11-17T22:41:22.098Z,94467.88
2022-11-17T22:43:50.736Z,94481.91
2022-11-17T22:46:18.249Z,94480.81
2022-11-17T22:48:45.112Z,94483.44
2022-11-17T22:51:12.490Z,94478.53
2022-11-17T22:53:39.266Z,94437.38
2022-11-17T22:56:07.933Z,94490.47
2022-11-17T22:58:34.930Z,94494.94
2022-11-17T23:01:06.080Z,94491.97
2022-11-17T23:03:33.430Z,94493.84
2022-11-17T23:06:04.768Z,94488.69
2022-11-17T23:08:32.134Z,94453.84
2022-11-17T23:11:36.486Z,94472.53
2022-11-17T23:13:49.430Z,94490.53
2022-11-17T23:16:16.541Z,94462.47
2022-11-17T23:18:43.566Z,94492.06
2022-11-17T23:21:10.899Z,94480.75
2022-11-17T23:23:40.054Z,94463.41
2022-11-17T23:26:09.521Z,94480.13
2022-11-17T23:28:40.132Z,94461.81
2022-11-17T23:31:11.437Z,94476.00
2022-11-17T23:33:40.680Z,94474.16
2022-11-17T23:36:11.599Z,94478.63
2022-11-17T23:38:38.239Z,94475.94
2022-11-17T23:41:07.281Z,94476.69
2022-11-17T23:43:34.124Z,94459.19
2022-11-17T23:46:10.020Z,94439.41
2022-11-17T23:48:36.983Z,94462.56
2022-11-17T23:51:08.343Z,94484.19
2022-11-17T23:53:35.361Z,94480.81
2022-11-17T23:56:02.972Z,94481.91
2022-11-17T23:58:29.777Z,94476.84
